Caribou, ME

12:07 AM EST on March 02, 2015 (GMT -0500)
Caribou Municipal | Change Station
CLOSE
Current Station
Airport
Location: Caribou,
Elevation: 623 ft
Nearby Weather Stations

Elev 623 ft 46.87 °N, 68.02 °W | Updated 13 minutes ago

Overcast
Overcast
21 °F
Feels Like 15 °F
N
5
Wind Variable Wind from South

Today
High -- | Low -- °F
--% Chance of Precip.
Yesterday
High -- | Low -- °F
Precip. -- in
6:10 AM 5:18 PM
Waxing Gibbous, 89% visible
Pressure 30.04 in
Visibility 10.0 miles
Clouds Overcast 5500 ft
Windchill 15 °F
Dew Point 10 °F
Humidity 63%
Rainfall 0.00 in
Snow Depth Not available.
UV 0 out of 12
Pollen .10 out of 12
Air Quality Not available.
Flu Activity Not available.
METAR KCAR 020454Z AUTO 17004KT 10SM OVC055 M06/M12 A3000 RMK AO2 SLP172 T10611122 410281178

More Conditions Fewer Conditions

Pressure 30.04 in
Visibility 10.0 miles
Clouds Overcast 5500 ft
Windchill 15 °F
Dew Point 10 °F
Humidity 63%
Rainfall 0.00 in
Snow Depth Not available.
UV 0 out of 12
Pollen .10 out of 12
Air Quality Not available.
Flu Activity Not available.
METAR KCAR 020454Z AUTO 17004KT 10SM OVC055 M06/M12 A3000 RMK AO2 SLP172 T10611122 410281178

More Conditions Fewer Conditions

10-Day Weather Forecast

Almanac

Astronomy

Mar. 02, 2015 Rise Set
Actual Time
Civil Twilight
Nautical Twilight
Astronomical Twilight
Moon
Length of Visible Light
Length of Day
Tomorrow will be .
, % of the Moon is Illuminated

Today's Extremes

State Highs State Lows

Community

WunderPhotos

Upload Photos

1,801,728 photos uploaded!

WunderBlogs® & News

Nearby

Air Quality

  Air Quality AQ Index Pollutant
Not available.

Snow Depth

Station Depth Elevation

Earthquake Activity

City Distance Mag. Time & Date
Minimum magnitude displayed is 2.5.

Coastal Water Temperatures

Place Temperature

Nearby Weather Stations